createdAt,value
2022-12-11T00:00:40.256Z,42.15
2022-12-11T00:03:44.365Z,42.01
2022-12-11T00:06:50.423Z,42.08
2022-12-11T00:09:53.148Z,42.07
2022-12-11T00:12:55.791Z,41.82
2022-12-11T00:15:59.549Z,41.96
2022-12-11T00:19:03.687Z,41.96
2022-12-11T00:22:06.338Z,41.99
2022-12-11T00:25:09.791Z,41.89
2022-12-11T00:28:13.179Z,41.72
2022-12-11T00:31:18.160Z,41.71
2022-12-11T00:34:22.414Z,41.98
2022-12-11T00:37:25.270Z,41.71
2022-12-11T00:40:27.960Z,41.61
2022-12-11T00:43:30.658Z,41.96
2022-12-11T00:46:33.457Z,41.90
2022-12-11T00:49:37.522Z,42.04
2022-12-11T00:52:40.730Z,42.10
2022-12-11T00:55:43.899Z,42.23
2022-12-11T00:58:46.590Z,42.37
2022-12-11T01:01:49.307Z,42.46
2022-12-11T01:04:53.378Z,42.35
2022-12-11T01:07:56.071Z,42.74
2022-12-11T01:11:02.588Z,42.87
2022-12-11T01:14:05.830Z,42.85
2022-12-11T01:17:08.491Z,42.90
2022-12-11T01:20:13.444Z,42.99
2022-12-11T01:23:16.104Z,43.10
2022-12-11T01:26:24.589Z,43.15
2022-12-11T01:29:27.334Z,43.25
2022-12-11T01:32:29.991Z,43.06
2022-12-11T01:35:34.049Z,42.90
2022-12-11T01:38:36.759Z,42.93
2022-12-11T01:41:39.479Z,42.98
2022-12-11T01:45:00.780Z,42.90
2022-12-11T01:48:06.567Z,42.99
2022-12-11T01:51:10.801Z,42.91
2022-12-11T01:54:15.356Z,43.00
2022-12-11T01:57:18.277Z,43.09
2022-12-11T02:00:21.608Z,42.95
2022-12-11T02:03:24.286Z,43.24
2022-12-11T02:06:35.736Z,43.37
2022-12-11T02:09:40.101Z,43.06
2022-12-11T02:12:48.658Z,43.08
2022-12-11T02:15:52.732Z,42.77
2022-12-11T02:19:01.122Z,42.78
2022-12-11T02:22:07.124Z,42.46
2022-12-11T02:25:15.107Z,42.45
2022-12-11T02:28:25.083Z,42.19
2022-12-11T02:31:30.958Z,42.19
2022-12-11T02:34:36.325Z,42.16
2022-12-11T02:37:40.518Z,42.14
2022-12-11T02:40:44.717Z,42.06
2022-12-11T02:43:49.819Z,41.81
2022-12-11T02:46:53.478Z,41.95
2022-12-11T02:49:57.838Z,41.93
2022-12-11T02:53:04.305Z,41.67
2022-12-11T02:56:10.910Z,41.82
2022-12-11T02:59:17.243Z,42.08
2022-12-11T03:02:20.019Z,42.00
2022-12-11T03:05:22.761Z,41.82
2022-12-11T03:08:25.568Z,41.70
2022-12-11T03:11:28.265Z,41.59
2022-12-11T03:14:32.364Z,41.85
2022-12-11T03:17:36.828Z,41.70
2022-12-11T03:20:42.228Z,41.70
2022-12-11T03:23:49.478Z,41.82
2022-12-11T03:26:56.657Z,41.80
2022-12-11T03:30:03.162Z,41.89
2022-12-11T03:33:07.841Z,41.69
2022-12-11T03:36:12.310Z,41.69
2022-12-11T03:39:18.153Z,41.96
2022-12-11T03:42:22.497Z,41.58
2022-12-11T03:45:27.288Z,41.67
2022-12-11T03:48:32.130Z,41.99
2022-12-11T03:51:35.731Z,41.88
2022-12-11T03:54:39.226Z,41.88
2022-12-11T03:57:42.159Z,41.88
2022-12-11T04:00:46.206Z,41.61
2022-12-11T04:03:48.934Z,41.68
2022-12-11T04:06:51.586Z,41.65
2022-12-11T04:09:54.296Z,41.53
2022-12-11T04:12:57.036Z,41.47
2022-12-11T04:16:00.157Z,41.54
2022-12-11T04:19:20.086Z,41.74
2022-12-11T04:22:40.235Z,41.58
2022-12-11T04:25:43.101Z,41.50
2022-12-11T04:28:46.597Z,41.60
2022-12-11T04:31:50.746Z,41.59
2022-12-11T04:34:53.435Z,41.52
2022-12-11T04:37:56.255Z,41.50
2022-12-11T04:40:59.526Z,41.51
2022-12-11T04:44:02.222Z,41.46
2022-12-11T04:47:06.344Z,41.77
2022-12-11T04:50:10.755Z,41.56
2022-12-11T04:53:13.436Z,41.61
2022-12-11T04:56:16.895Z,41.60
2022-12-11T04:59:20.629Z,41.58
2022-12-11T05:02:24.720Z,41.34
2022-12-11T05:05:27.706Z,41.44
2022-12-11T05:08:30.365Z,41.43
2022-12-11T05:11:33.568Z,41.13
2022-12-11T05:14:37.262Z,41.48
2022-12-11T05:17:41.274Z,41.54
2022-12-11T05:20:43.937Z,41.36
2022-12-11T05:23:46.654Z,41.37
2022-12-11T05:26:49.286Z,41.47
2022-12-11T05:29:56.242Z,41.62
2022-12-11T05:33:03.483Z,41.65
2022-12-11T05:36:07.423Z,41.50
2022-12-11T05:39:10.550Z,41.43
2022-12-11T05:42:13.214Z,41.52
2022-12-11T05:45:15.991Z,41.62
2022-12-11T05:48:20.040Z,41.63
2022-12-11T05:51:23.993Z,41.22
2022-12-11T05:54:26.706Z,41.62
2022-12-11T05:57:29.368Z,41.44
2022-12-11T06:00:35.982Z,41.45
2022-12-11T06:03:40.435Z,41.52
2022-12-11T06:06:43.842Z,41.60
2022-12-11T06:09:46.574Z,41.58
2022-12-11T06:12:49.244Z,41.42
2022-12-11T06:15:51.972Z,41.54
2022-12-11T06:18:58.464Z,41.51
2022-12-11T06:22:01.419Z,41.36
2022-12-11T06:25:04.358Z,41.34
2022-12-11T06:28:07.109Z,41.52
2022-12-11T06:31:10.896Z,41.65
2022-12-11T06:34:14.983Z,41.69
2022-12-11T06:37:17.654Z,41.72
2022-12-11T06:40:20.533Z,41.56
2022-12-11T06:43:23.294Z,41.37
2022-12-11T06:46:26.079Z,41.46
2022-12-11T06:49:30.544Z,41.46
2022-12-11T06:52:33.266Z,41.42
2022-12-11T06:55:36.126Z,41.60
2022-12-11T06:58:39.322Z,41.54
2022-12-11T07:01:42.071Z,41.55
2022-12-11T07:04:49.290Z,41.81
2022-12-11T07:07:55.007Z,41.66
2022-12-11T07:11:03.667Z,41.76
2022-12-11T07:14:06.652Z,42.01
2022-12-11T07:17:09.424Z,42.12
2022-12-11T07:20:14.088Z,41.89
2022-12-11T07:23:16.805Z,42.17
2022-12-11T07:26:20.335Z,41.90
2022-12-11T07:29:23.136Z,41.60
2022-12-11T07:32:25.892Z,41.58
2022-12-11T07:35:30.581Z,41.88
2022-12-11T07:38:33.707Z,41.74
2022-12-11T07:41:36.654Z,41.31
2022-12-11T07:44:39.587Z,41.57
2022-12-11T07:47:42.317Z,41.55
2022-12-11T07:50:46.746Z,41.57
2022-12-11T07:53:50.663Z,41.26
2022-12-11T07:56:54.045Z,41.22
2022-12-11T07:59:56.972Z,41.53
2022-12-11T08:02:59.888Z,41.25
2022-12-11T08:06:05.225Z,41.28
2022-12-11T08:09:08.936Z,41.42
2022-12-11T08:12:12.050Z,41.23
2022-12-11T08:15:14.768Z,41.32
2022-12-11T08:18:17.397Z,41.20
2022-12-11T08:21:22.597Z,41.13
2022-12-11T08:24:25.311Z,41.30
2022-12-11T08:27:28.029Z,41.32
2022-12-11T08:30:31.514Z,41.30
2022-12-11T08:33:34.555Z,40.96
2022-12-11T08:36:38.586Z,41.32
2022-12-11T08:39:43.438Z,41.16
2022-12-11T08:42:46.189Z,40.93
2022-12-11T08:45:49.422Z,41.03
2022-12-11T08:48:52.407Z,41.15
2022-12-11T08:51:56.761Z,41.00
2022-12-11T08:54:59.729Z,40.94
2022-12-11T08:58:02.490Z,41.11
2022-12-11T09:01:07.625Z,41.08
2022-12-11T12:17:40.802Z,43.76
2022-12-11T12:20:47.339Z,43.33
2022-12-11T12:23:57.399Z,43.27
2022-12-11T12:27:02.464Z,43.11
2022-12-11T12:30:09.248Z,42.97
2022-12-11T12:33:23.223Z,42.77
2022-12-11T12:36:29.382Z,42.84
2022-12-11T12:39:38.903Z,42.41
2022-12-11T12:42:49.209Z,42.22
2022-12-11T12:45:55.238Z,42.43
2022-12-11T12:49:00.347Z,42.69
2022-12-11T12:52:03.898Z,42.43
2022-12-11T12:55:18.953Z,42.75
2022-12-11T12:58:26.248Z,43.52
2022-12-11T13:01:30.410Z,43.08
2022-12-11T13:04:58.258Z,43.06
2022-12-11T13:08:02.694Z,42.93
2022-12-11T13:11:06.738Z,43.14
2022-12-11T13:14:23.531Z,43.37
2022-12-11T13:17:28.486Z,43.32
2022-12-11T13:20:33.353Z,43.34
2022-12-11T13:23:36.503Z,43.10
2022-12-11T13:26:39.439Z,42.45
2022-12-11T13:29:43.130Z,42.58
2022-12-11T13:32:58.827Z,42.61
2022-12-11T13:36:24.386Z,44.34
2022-12-11T13:39:30.261Z,45.89
2022-12-11T13:42:34.637Z,46.32
2022-12-11T13:45:40.815Z,44.90
2022-12-11T13:48:47.692Z,45.35
2022-12-11T13:51:56.455Z,45.30
2022-12-11T13:55:01.211Z,45.09
2022-12-11T13:58:05.149Z,45.30
2022-12-11T14:01:11.221Z,45.83
2022-12-11T14:04:17.177Z,44.58
2022-12-11T14:07:25.798Z,45.52
2022-12-11T14:10:30.959Z,45.49
2022-12-11T14:13:35.275Z,45.76
2022-12-11T14:16:38.183Z,45.50
2022-12-11T14:19:41.062Z,45.75
2022-12-11T14:22:45.236Z,45.34
2022-12-11T14:25:53.360Z,45.72
2022-12-11T14:28:56.389Z,45.25
2022-12-11T14:32:02.228Z,45.31
2022-12-11T14:35:07.033Z,44.96
2022-12-11T14:38:16.488Z,44.71
2022-12-11T14:41:20.790Z,45.11
2022-12-11T14:44:26.402Z,44.83
2022-12-11T14:47:31.416Z,44.69
2022-12-11T14:50:38.077Z,44.64
2022-12-11T14:53:44.917Z,44.77
2022-12-11T14:56:58.397Z,44.68
2022-12-11T15:00:02.476Z,44.62
2022-12-11T15:03:06.630Z,44.41
2022-12-11T15:06:22.940Z,44.07
2022-12-11T15:09:28.686Z,44.02
2022-12-11T15:12:31.603Z,44.27
2022-12-11T15:15:38.697Z,43.43
2022-12-11T15:18:42.993Z,44.55
2022-12-11T15:21:46.180Z,44.81
2022-12-11T15:24:52.509Z,45.28
2022-12-11T15:27:56.459Z,45.83
2022-12-11T15:31:00.111Z,44.82
2022-12-11T15:34:03.037Z,43.33
2022-12-11T15:37:05.825Z,45.17
2022-12-11T15:40:11.206Z,45.11
2022-12-11T15:43:14.166Z,44.58
2022-12-11T15:46:17.949Z,44.99
2022-12-11T15:49:24.121Z,44.48
2022-12-11T15:52:26.936Z,43.96
2022-12-11T15:55:34.963Z,44.44
2022-12-11T15:58:38.347Z,44.03
2022-12-11T16:01:41.218Z,44.41
2022-12-11T16:04:44.276Z,44.40
2022-12-11T16:07:47.033Z,44.71
2022-12-11T16:10:53.097Z,44.08
2022-12-11T16:13:55.823Z,44.24
2022-12-11T16:16:58.763Z,44.76
2022-12-11T16:20:01.504Z,44.85
2022-12-11T16:23:04.374Z,44.60
2022-12-11T16:26:10.121Z,44.58
2022-12-11T16:29:12.858Z,44.55
2022-12-11T16:32:15.757Z,44.56
2022-12-11T16:35:18.837Z,44.48
2022-12-11T16:38:22.626Z,44.58
2022-12-11T16:41:26.872Z,44.49
2022-12-11T16:44:29.683Z,44.54
2022-12-11T16:47:32.455Z,44.46
2022-12-11T16:50:41.464Z,44.32
2022-12-11T16:53:44.305Z,44.55
2022-12-11T16:56:48.413Z,44.67
2022-12-11T16:59:51.176Z,44.50
2022-12-11T17:02:54.147Z,44.50
2022-12-11T17:05:57.776Z,44.10
2022-12-11T17:09:00.896Z,44.39
2022-12-11T17:12:05.261Z,44.68
2022-12-11T17:15:08.397Z,44.65
2022-12-11T17:18:11.682Z,44.62
2022-12-11T17:21:15.696Z,44.73
2022-12-11T17:24:18.512Z,44.66
2022-12-11T17:27:23.055Z,44.62
2022-12-11T17:30:25.803Z,44.85
2022-12-11T17:33:28.590Z,44.64
2022-12-11T17:36:32.137Z,44.63
2022-12-11T17:39:34.847Z,44.71
2022-12-11T17:42:39.022Z,44.43
2022-12-11T17:45:42.796Z,44.13
2022-12-11T17:48:45.607Z,44.13
2022-12-11T17:51:48.377Z,44.51
2022-12-11T17:54:51.138Z,44.55
2022-12-11T17:57:55.337Z,44.64
2022-12-11T18:00:58.766Z,44.74
2022-12-11T18:04:01.985Z,44.75
2022-12-11T18:07:04.856Z,44.78
2022-12-11T18:10:07.859Z,44.84
2022-12-11T18:13:12.350Z,44.94
2022-12-11T18:16:17.457Z,44.88
2022-12-11T18:19:22.225Z,44.69
2022-12-11T18:22:25.517Z,44.79
2022-12-11T18:25:28.685Z,44.33
2022-12-11T18:28:33.022Z,44.47
2022-12-11T18:31:41.967Z,44.76
2022-12-11T18:34:45.651Z,44.56
2022-12-11T18:37:48.399Z,44.46
2022-12-11T18:40:51.208Z,44.78
2022-12-11T18:43:55.370Z,44.51
2022-12-11T18:46:58.305Z,44.72
2022-12-11T18:50:07.130Z,44.80
2022-12-11T18:53:10.648Z,44.82
2022-12-11T18:56:14.481Z,44.71
2022-12-11T18:59:19.449Z,44.71
2022-12-11T19:02:22.661Z,44.73
2022-12-11T19:05:25.468Z,44.77
2022-12-11T19:08:28.351Z,44.81
2022-12-11T19:11:31.792Z,44.68
2022-12-11T19:14:39.085Z,44.76
2022-12-11T19:17:43.238Z,44.62
2022-12-11T19:20:49.461Z,44.77
2022-12-11T19:23:54.127Z,44.53
2022-12-11T19:27:00.057Z,44.61
2022-12-11T19:30:05.576Z,44.66
2022-12-11T19:33:08.398Z,45.01
2022-12-11T19:36:12.693Z,44.96
2022-12-11T19:39:15.544Z,44.96
2022-12-11T19:42:18.292Z,44.98
2022-12-11T19:45:22.393Z,45.01
2022-12-11T19:48:25.170Z,44.88
2022-12-11T19:51:29.750Z,44.88
2022-12-11T19:54:32.664Z,44.93
2022-12-11T19:57:35.482Z,44.92
2022-12-11T20:00:39.755Z,44.78
2022-12-11T20:03:42.574Z,44.76
2022-12-11T20:06:46.145Z,44.05
2022-12-11T20:09:48.893Z,44.16
2022-12-11T20:12:55.208Z,43.99
2022-12-11T20:15:59.405Z,44.02
2022-12-11T20:19:02.264Z,43.45
2022-12-11T20:22:06.565Z,43.57
2022-12-11T20:25:09.730Z,43.65
2022-12-11T20:28:12.668Z,43.15
2022-12-11T20:31:20.295Z,43.50
2022-12-11T20:34:31.939Z,43.12
2022-12-11T20:37:34.870Z,42.96
2022-12-11T20:40:37.629Z,43.20
2022-12-11T20:43:40.655Z,42.96
2022-12-11T20:46:44.777Z,42.89
2022-12-11T20:49:47.783Z,42.90
2022-12-11T20:52:50.542Z,42.80
2022-12-11T20:55:53.425Z,43.03
2022-12-11T20:58:56.540Z,42.78
2022-12-11T21:02:00.741Z,42.86
2022-12-11T21:05:03.542Z,42.79
2022-12-11T21:08:06.511Z,42.72
2022-12-11T21:11:09.398Z,42.75
2022-12-11T21:14:12.188Z,42.67
2022-12-11T21:17:16.382Z,42.66
2022-12-11T21:20:19.493Z,42.58
2022-12-11T21:23:22.290Z,42.68
2022-12-11T21:26:25.399Z,42.26
2022-12-11T21:29:30.097Z,42.49
2022-12-11T21:32:35.372Z,42.59
2022-12-11T21:35:38.141Z,42.38
2022-12-11T21:38:41.784Z,42.38
2022-12-11T21:41:44.569Z,42.64
2022-12-11T21:48:11.744Z,42.42
2022-12-11T21:51:15.598Z,42.42
2022-12-11T21:54:19.046Z,42.44
2022-12-11T21:57:26.306Z,42.14
2022-12-11T22:00:29.763Z,42.31
2022-12-11T22:03:33.864Z,42.43
2022-12-11T22:06:36.992Z,42.53
2022-12-11T22:09:41.136Z,42.32
2022-12-11T22:12:43.934Z,42.61
2022-12-11T22:15:46.772Z,42.87
2022-12-11T22:18:50.859Z,42.96
2022-12-11T22:21:53.650Z,42.76
2022-12-11T22:24:56.397Z,42.92
2022-12-11T22:27:59.207Z,42.70
2022-12-11T22:31:02.051Z,42.99
2022-12-11T22:34:06.248Z,43.26
2022-12-11T22:37:08.979Z,43.21
2022-12-11T22:40:11.961Z,43.13
2022-12-11T22:43:14.774Z,43.37
2022-12-11T22:46:18.140Z,42.99
2022-12-11T22:49:22.341Z,43.06
2022-12-11T22:52:25.066Z,43.24
2022-12-11T22:55:27.889Z,43.26
2022-12-11T22:58:30.653Z,43.12
2022-12-11T23:01:33.417Z,43.65
2022-12-11T23:04:37.612Z,43.47
2022-12-11T23:07:40.402Z,43.48
2022-12-11T23:10:43.601Z,43.57
2022-12-11T23:13:46.362Z,43.57
2022-12-11T23:16:49.219Z,43.54
2022-12-11T23:19:53.419Z,43.60
2022-12-11T23:22:56.265Z,43.38
2022-12-11T23:25:59.039Z,43.66
2022-12-11T23:29:02.072Z,43.62
2022-12-11T23:32:04.825Z,43.65
2022-12-11T23:35:09.787Z,43.83
2022-12-11T23:38:12.913Z,43.67
2022-12-11T23:41:16.288Z,43.79
2022-12-11T23:44:19.069Z,43.78
2022-12-11T23:47:21.772Z,43.82
2022-12-11T23:50:26.058Z,43.79
2022-12-11T23:53:30.146Z,43.58
2022-12-11T23:56:32.930Z,43.20
2022-12-11T23:59:35.698Z,43.61
